Time;durP1;ratioP1;P1;durP2;ratioP2;P2;SDS_P1;SDS_P2;PMS_P1;PMS_P2;Temp;Humidity;BMP_temperature;BMP_pressure;BME280_temperature;BME280_humidity;BME280_pressure;Samples;Min_cycle;Max_cycle;Signal;HPM_P1;HPM_P2
2021/08/18 00:01:10;;;;;;;7.80;3.28;;;15.50;99.90;;;;;;5070487;28;20031;-68
2021/08/18 00:03:35;;;;;;;8.05;3.70;;;15.50;99.90;;;;;;5070719;28;20055;-68
2021/08/18 00:06:01;;;;;;;9.40;3.88;;;15.50;99.90;;;;;;5069907;28;20040;-69
2021/08/18 00:08:26;;;;;;;10.25;3.92;;;15.50;99.90;;;;;;5070442;28;20536;-69
2021/08/18 00:10:52;;;;;;;9.75;4.32;;;15.50;99.90;;;;;;5069904;28;20068;-69
2021/08/18 00:13:22;;;;;;;7.88;4.25;;;15.50;99.90;;;;;;5070539;28;20033;-69
2021/08/18 00:15:49;;;;;;;9.23;5.10;;;15.50;99.90;;;;;;5070075;28;20449;-69
2021/08/18 00:18:14;;;;;;;8.95;4.82;;;15.50;99.90;;;;;;5070242;28;20040;-69
2021/08/18 00:20:40;;;;;;;9.60;5.25;;;15.50;99.90;;;;;;5068676;28;20393;-69
2021/08/18 00:23:06;;;;;;;10.90;5.03;;;15.50;99.90;;;;;;5069690;28;20043;-69
2021/08/18 00:25:32;;;;;;;10.80;4.43;;;15.50;99.90;;;;;;5068476;28;20504;-69
2021/08/18 00:27:58;;;;;;;9.13;4.38;;;15.50;99.90;;;;;;5067631;28;20565;-69
2021/08/18 00:30:24;;;;;;;9.10;3.95;;;15.50;99.90;;;;;;5069848;28;20032;-70
2021/08/18 00:32:50;;;;;;;8.00;4.45;;;15.50;99.90;;;;;;5070046;28;20649;-69
2021/08/18 00:35:16;;;;;;;11.48;3.72;;;15.50;99.90;;;;;;5069590;28;20033;-69
2021/08/18 00:37:41;;;;;;;9.18;4.07;;;15.50;99.90;;;;;;5069755;28;20116;-69
2021/08/18 00:40:08;;;;;;;12.15;4.28;;;15.50;99.90;;;;;;5067934;28;20044;-69
2021/08/18 00:42:34;;;;;;;9.15;3.50;;;15.50;99.90;;;;;;5070148;28;20032;-69
2021/08/18 00:45:00;;;;;;;6.38;3.85;;;15.60;99.90;;;;;;5067553;28;20035;-69
2021/08/18 00:47:25;;;;;;;10.07;4.05;;;15.60;99.90;;;;;;5069592;28;20029;-69
2021/08/18 00:49:51;;;;;;;8.25;3.72;;;15.60;99.90;;;;;;5069934;28;20078;-69
2021/08/18 00:52:16;;;;;;;8.48;3.70;;;15.60;99.90;;;;;;5069185;28;20034;-69
2021/08/18 00:54:42;;;;;;;6.20;3.25;;;15.50;99.90;;;;;;5068069;28;20032;-70
2021/08/18 00:57:08;;;;;;;8.45;2.70;;;15.50;99.90;;;;;;5068725;28;20115;-69
2021/08/18 00:59:34;;;;;;;10.57;2.92;;;15.60;99.90;;;;;;5069684;28;20024;-69
2021/08/18 01:02:02;;;;;;;6.45;2.00;;;15.60;99.90;;;;;;5069507;28;20037;-69
2021/08/18 01:04:27;;;;;;;6.40;1.80;;;15.60;99.90;;;;;;5067907;28;20396;-69
2021/08/18 01:06:53;;;;;;;8.93;2.30;;;15.50;99.90;;;;;;5067469;28;20032;-69
2021/08/18 01:09:20;;;;;;;5.55;1.48;;;15.60;99.90;;;;;;5066365;28;20036;-70
2021/08/18 01:11:49;;;;;;;4.65;1.70;;;15.60;99.90;;;;;;5067788;28;20033;-70
2021/08/18 01:14:15;;;;;;;2.45;1.15;;;15.60;99.90;;;;;;5067851;28;20437;-69
2021/08/18 01:16:42;;;;;;;5.22;1.70;;;15.50;99.90;;;;;;5069007;28;20112;-69
2021/08/18 01:19:09;;;;;;;4.32;1.55;;;15.50;99.90;;;;;;5068911;28;20041;-69
2021/08/18 01:21:36;;;;;;;6.80;1.80;;;15.60;99.90;;;;;;5068950;28;20041;-69
2021/08/18 01:24:03;;;;;;;6.47;1.48;;;15.60;99.90;;;;;;5065291;28;20036;-69
2021/08/18 01:26:29;;;;;;;8.38;2.42;;;15.50;99.90;;;;;;5068192;28;20081;-70
2021/08/18 01:28:56;;;;;;;6.55;2.03;;;15.50;99.90;;;;;;5068772;28;20127;-69
2021/08/18 01:31:22;;;;;;;4.90;1.92;;;15.50;99.90;;;;;;5067044;28;20087;-69
2021/08/18 01:33:48;;;;;;;5.32;1.88;;;15.50;99.90;;;;;;5069146;28;20073;-69
2021/08/18 01:36:14;;;;;;;5.20;2.28;;;15.50;99.90;;;;;;5068191;28;20086;-71
2021/08/18 01:38:39;;;;;;;6.45;2.03;;;15.50;99.90;;;;;;5068867;28;20085;-70
2021/08/18 01:41:05;;;;;;;6.30;1.80;;;15.60;99.90;;;;;;5067321;28;20481;-69
2021/08/18 01:43:31;;;;;;;8.05;2.58;;;15.50;99.90;;;;;;5066896;28;20163;-70
2021/08/18 01:45:56;;;;;;;6.28;1.92;;;15.50;99.90;;;;;;5068667;28;20515;-69
2021/08/18 01:48:24;;;;;;;5.28;1.80;;;15.60;99.90;;;;;;5068390;28;20361;-69
2021/08/18 01:50:53;;;;;;;4.10;1.25;;;15.60;99.90;;;;;;5068507;28;20542;-69
2021/08/18 01:53:31;;;;;;;4.43;1.85;;;15.60;99.90;;;;;;5068044;28;20036;-69
2021/08/18 01:56:18;;;;;;;4.70;1.80;;;15.60;99.90;;;;;;5068112;28;20081;-70
2021/08/18 01:58:45;;;;;;;7.00;1.83;;;15.60;99.90;;;;;;5057928;28;20178;-69
2021/08/18 02:01:15;;;;;;;5.63;2.00;;;15.60;99.90;;;;;;5068253;28;20032;-69
2021/08/18 02:03:40;;;;;;;4.37;2.10;;;15.60;99.90;;;;;;5068171;28;20055;-69
2021/08/18 02:06:06;;;;;;;5.72;1.80;;;15.50;99.90;;;;;;5067831;28;20400;-69
2021/08/18 02:08:32;;;;;;;5.20;2.00;;;15.60;99.90;;;;;;5067497;28;20617;-69
2021/08/18 02:10:57;;;;;;;6.47;2.17;;;15.60;99.90;;;;;;5067311;28;20059;-69
2021/08/18 02:13:23;;;;;;;3.67;2.08;;;15.60;99.90;;;;;;5067348;28;20040;-69
2021/08/18 02:15:49;;;;;;;6.18;3.08;;;15.50;99.90;;;;;;5067690;28;20582;-69
2021/08/18 02:18:15;;;;;;;5.90;3.40;;;15.60;99.90;;;;;;5068038;28;20547;-70
2021/08/18 02:20:43;;;;;;;9.80;3.90;;;15.60;99.90;;;;;;5066352;28;20036;-69
2021/08/18 02:23:09;;;;;;;7.55;3.35;;;15.60;99.90;;;;;;5066188;28;20056;-69
2021/08/18 02:25:35;;;;;;;5.78;3.33;;;15.60;99.90;;;;;;5067733;28;20063;-70
2021/08/18 02:28:01;;;;;;;8.27;3.35;;;15.60;99.90;;;;;;5067563;28;20139;-69
2021/08/18 02:30:28;;;;;;;5.70;3.42;;;15.60;99.90;;;;;;5052404;28;20024;-70
2021/08/18 02:32:55;;;;;;;9.05;4.28;;;15.60;99.90;;;;;;5066637;28;20028;-69
2021/08/18 02:35:21;;;;;;;18.45;5.05;;;15.60;99.90;;;;;;5066834;28;20090;-69
2021/08/18 02:37:48;;;;;;;11.55;4.55;;;15.60;99.90;;;;;;5067203;28;20032;-69
2021/08/18 02:40:21;;;;;;;12.40;5.20;;;15.60;99.90;;;;;;5067989;28;20098;-70
2021/08/18 02:42:52;;;;;;;9.02;3.65;;;15.60;99.90;;;;;;5067534;28;20222;-70
2021/08/18 02:45:19;;;;;;;8.75;3.92;;;15.60;99.90;;;;;;5067733;28;20032;-69
2021/08/18 02:47:45;;;;;;;11.80;2.67;;;15.60;99.90;;;;;;5066008;28;20627;-69
2021/08/18 02:50:14;;;;;;;6.13;3.45;;;15.60;99.90;;;;;;5067793;28;20036;-70
2021/08/18 02:52:40;;;;;;;8.25;2.70;;;15.60;99.90;;;;;;5065908;28;20497;-70
2021/08/18 02:55:07;;;;;;;3.58;1.80;;;15.60;99.90;;;;;;5067585;28;20112;-69
2021/08/18 02:57:32;;;;;;;3.97;1.63;;;15.50;99.90;;;;;;5066806;28;20044;-71
2021/08/18 02:59:58;;;;;;;4.40;1.88;;;15.60;99.90;;;;;;5066102;28;20036;-70
2021/08/18 03:02:25;;;;;;;4.82;1.60;;;15.60;99.90;;;;;;5067716;28;20043;-70
2021/08/18 03:04:51;;;;;;;3.85;1.40;;;15.60;99.90;;;;;;5065651;28;20040;-70
2021/08/18 03:07:17;;;;;;;4.70;1.55;;;15.60;99.90;;;;;;5067559;28;20082;-70
2021/08/18 03:09:43;;;;;;;4.45;1.58;;;15.60;99.90;;;;;;5065690;28;20138;-70
2021/08/18 03:12:09;;;;;;;6.85;2.35;;;15.50;99.90;;;;;;5067274;28;20435;-70
2021/08/18 03:14:34;;;;;;;5.60;1.45;;;15.50;99.90;;;;;;5067261;28;20431;-71
2021/08/18 03:17:00;;;;;;;5.03;1.20;;;15.50;99.90;;;;;;5066985;28;20031;-70
2021/08/18 03:19:25;;;;;;;7.65;1.70;;;15.50;99.90;;;;;;5067502;28;20408;-70
2021/08/18 03:21:52;;;;;;;5.25;1.20;;;15.50;99.90;;;;;;5067066;28;20025;-70
2021/08/18 03:24:18;;;;;;;3.88;1.27;;;15.50;99.90;;;;;;5066934;28;20416;-70
2021/08/18 03:26:44;;;;;;;3.67;1.33;;;15.50;99.90;;;;;;5067477;28;20082;-70
2021/08/18 03:29:09;;;;;;;4.95;1.38;;;15.40;99.90;;;;;;5071276;28;20032;-70
2021/08/18 03:31:35;;;;;;;3.72;1.30;;;15.40;99.90;;;;;;5071229;28;20078;-69
2021/08/18 03:34:01;;;;;;;3.20;1.05;;;15.40;99.90;;;;;;5069191;28;20029;-70
2021/08/18 03:36:28;;;;;;;4.70;1.30;;;15.30;99.90;;;;;;5071113;28;20024;-70
2021/08/18 03:38:53;;;;;;;6.88;1.60;;;15.30;99.90;;;;;;5070319;28;20610;-70
2021/08/18 03:41:19;;;;;;;6.80;1.98;;;15.30;99.90;;;;;;5071492;28;20124;-70
2021/08/18 03:43:45;;;;;;;5.07;2.15;;;15.30;99.90;;;;;;5070214;28;20040;-70
2021/08/18 03:46:10;;;;;;;7.20;2.95;;;15.40;99.90;;;;;;5070579;28;20024;-70
2021/08/18 03:48:36;;;;;;;7.07;2.88;;;15.40;99.90;;;;;;5070706;28;20060;-70
2021/08/18 03:51:02;;;;;;;8.38;3.70;;;15.40;99.90;;;;;;5070393;28;20032;-70
2021/08/18 03:53:28;;;;;;;5.93;2.92;;;15.40;99.90;;;;;;5070458;28;20033;-70
2021/08/18 03:55:53;;;;;;;7.80;2.30;;;15.40;99.90;;;;;;5070007;28;20029;-70
2021/08/18 03:58:19;;;;;;;4.57;2.00;;;15.40;99.90;;;;;;5068868;28;20512;-69
2021/08/18 04:00:44;;;;;;;5.03;1.35;;;15.40;99.90;;;;;;5070148;28;20067;-70
2021/08/18 04:03:10;;;;;;;5.28;1.52;;;15.40;99.90;;;;;;5070599;28;20029;-70
2021/08/18 04:05:36;;;;;;;2.95;0.98;;;15.40;99.90;;;;;;5070311;28;20044;-69
2021/08/18 04:08:02;;;;;;;4.57;0.77;;;15.40;99.90;;;;;;5069497;28;20040;-70
2021/08/18 04:10:28;;;;;;;4.30;0.90;;;15.40;99.90;;;;;;5068998;28;20040;-70
2021/08/18 04:13:03;;;;;;;4.25;0.82;;;15.40;99.90;;;;;;5068645;28;20039;-70
2021/08/18 04:15:37;;;;;;;2.42;1.05;;;15.30;99.90;;;;;;5066227;28;20108;-70
2021/08/18 04:18:02;;;;;;;3.78;0.90;;;15.30;99.90;;;;;;5067317;28;20507;-70
2021/08/18 04:20:28;;;;;;;4.00;1.00;;;15.30;99.90;;;;;;5068928;28;20032;-70
2021/08/18 04:22:53;;;;;;;2.05;1.05;;;15.30;99.90;;;;;;5069866;28;20037;-70
2021/08/18 04:25:20;;;;;;;1.75;0.88;;;15.30;99.90;;;;;;5070162;28;20036;-69
2021/08/18 04:27:46;;;;;;;2.65;1.00;;;15.30;99.90;;;;;;5070017;28;20411;-69
2021/08/18 04:30:13;;;;;;;1.92;0.85;;;15.30;99.90;;;;;;5069337;28;20456;-70
2021/08/18 04:32:39;;;;;;;3.65;0.98;;;15.30;99.90;;;;;;5069518;28;20393;-69
2021/08/18 04:35:07;;;;;;;3.00;0.93;;;15.20;99.90;;;;;;5068869;28;20490;-70
2021/08/18 04:37:33;;;;;;;3.33;0.98;;;15.20;99.90;;;;;;5067892;28;20028;-69
2021/08/18 04:39:58;;;;;;;1.63;0.80;;;15.20;99.90;;;;;;5069191;28;20115;-70
2021/08/18 04:42:24;;;;;;;7.82;1.23;;;15.20;99.90;;;;;;5069707;28;20112;-69
2021/08/18 04:44:50;;;;;;;2.38;1.45;;;15.20;99.90;;;;;;5067885;28;20024;-70
2021/08/18 04:47:15;;;;;;;3.53;0.98;;;15.20;99.90;;;;;;5068967;28;20063;-69
2021/08/18 04:49:41;;;;;;;3.15;1.38;;;15.20;99.90;;;;;;5069076;28;20066;-69
2021/08/18 04:52:07;;;;;;;2.20;1.10;;;15.20;99.90;;;;;;5069745;28;20052;-70
2021/08/18 04:54:32;;;;;;;4.45;1.23;;;15.20;99.90;;;;;;5069570;28;20040;-69
2021/08/18 04:56:59;;;;;;;2.85;1.05;;;15.20;99.90;;;;;;5067713;28;20122;-70
2021/08/18 04:59:25;;;;;;;2.40;0.80;;;15.20;99.90;;;;;;5066423;28;20041;-69
2021/08/18 05:01:51;;;;;;;2.55;1.15;;;15.20;99.90;;;;;;5067309;28;20036;-69
2021/08/18 05:04:17;;;;;;;2.03;0.77;;;15.10;99.90;;;;;;5065353;28;20040;-70
2021/08/18 05:06:42;;;;;;;3.88;0.80;;;15.10;99.90;;;;;;5065013;28;20040;-70
2021/08/18 05:09:08;;;;;;;3.38;0.80;;;15.10;99.90;;;;;;5064669;28;20489;-69
2021/08/18 05:11:33;;;;;;;1.70;0.90;;;15.10;99.90;;;;;;5066123;28;20476;-69
2021/08/18 05:13:59;;;;;;;1.00;0.68;;;15.10;99.90;;;;;;5066531;28;20052;-70
2021/08/18 05:16:24;;;;;;;1.88;0.80;;;15.20;99.90;;;;;;5066383;28;20101;-69
2021/08/18 05:18:50;;;;;;;1.73;0.98;;;15.10;99.90;;;;;;5066342;28;20041;-69
2021/08/18 05:21:15;;;;;;;1.60;0.88;;;15.10;99.90;;;;;;5065042;28;20032;-70
2021/08/18 05:23:41;;;;;;;2.40;0.52;;;15.20;99.90;;;;;;5066723;28;20682;-69
2021/08/18 05:26:07;;;;;;;5.75;1.05;;;15.20;99.90;;;;;;5064892;28;20094;-70
2021/08/18 05:28:32;;;;;;;7.75;1.63;;;15.20;99.90;;;;;;5064991;28;20424;-70
2021/08/18 05:30:58;;;;;;;3.08;1.10;;;15.20;99.90;;;;;;5065737;28;20087;-69
2021/08/18 05:33:23;;;;;;;2.15;0.85;;;15.20;99.90;;;;;;5066229;28;20221;-68
2021/08/18 05:35:49;;;;;;;3.50;1.20;;;15.20;99.90;;;;;;5064392;28;20061;-68
2021/08/18 05:38:14;;;;;;;1.92;1.00;;;15.30;99.90;;;;;;5065986;28;20051;-69
2021/08/18 05:40:40;;;;;;;2.50;1.15;;;15.30;99.90;;;;;;5066601;28;20051;-69
2021/08/18 05:43:06;;;;;;;2.60;1.20;;;15.30;99.90;;;;;;5064375;28;20066;-69
2021/08/18 05:45:31;;;;;;;2.95;1.17;;;15.30;99.90;;;;;;5065899;28;20040;-67
2021/08/18 05:47:57;;;;;;;1.60;1.00;;;15.30;99.90;;;;;;5064235;28;20039;-69
2021/08/18 05:50:22;;;;;;;2.97;1.40;;;15.40;99.90;;;;;;5065866;28;20032;-69
2021/08/18 05:52:48;;;;;;;2.50;1.23;;;15.40;99.90;;;;;;5066716;28;20032;-69
2021/08/18 05:55:14;;;;;;;2.65;1.40;;;15.40;99.90;;;;;;5065313;28;20036;-68
2021/08/18 05:57:40;;;;;;;5.15;1.33;;;15.50;99.90;;;;;;5065568;28;20040;-69
2021/08/18 06:00:06;;;;;;;2.65;1.88;;;15.50;99.90;;;;;;5064045;28;20039;-68
2021/08/18 06:02:32;;;;;;;2.63;1.45;;;15.60;99.90;;;;;;5065215;28;20035;-69
2021/08/18 06:04:58;;;;;;;4.32;1.50;;;15.70;99.90;;;;;;5062987;28;20045;-68
2021/08/18 06:07:23;;;;;;;2.80;1.73;;;15.70;99.90;;;;;;5064738;28;20040;-69
2021/08/18 06:09:49;;;;;;;4.57;2.10;;;15.70;99.90;;;;;;5064085;28;20041;-69
2021/08/18 06:12:15;;;;;;;5.35;1.70;;;15.80;99.90;;;;;;5066107;28;20033;-68
2021/08/18 06:14:41;;;;;;;3.10;1.67;;;15.80;99.90;;;;;;5064868;28;20028;-68
2021/08/18 06:17:07;;;;;;;4.18;1.77;;;15.80;99.90;;;;;;5065409;28;20108;-69
2021/08/18 06:19:32;;;;;;;2.72;1.50;;;15.80;99.90;;;;;;5064383;28;20021;-69
2021/08/18 06:21:59;;;;;;;4.05;1.60;;;15.80;99.90;;;;;;5065969;28;20467;-69
2021/08/18 06:24:29;;;;;;;5.18;1.60;;;15.80;99.90;;;;;;5064770;28;20028;-73
2021/08/18 06:26:57;;;;;;;4.53;1.48;;;15.80;99.90;;;;;;5065357;28;20033;-69
2021/08/18 06:29:23;;;;;;;3.88;1.70;;;15.90;99.90;;;;;;5065398;28;20044;-68
2021/08/18 06:31:49;;;;;;;4.43;1.70;;;15.90;99.90;;;;;;5065331;28;20377;-68
2021/08/18 06:34:15;;;;;;;2.80;1.35;;;15.90;99.90;;;;;;5064079;28;20028;-69
2021/08/18 06:36:41;;;;;;;2.90;1.42;;;15.90;99.90;;;;;;5065459;28;20048;-69
2021/08/18 06:39:07;;;;;;;4.50;1.85;;;16.00;99.90;;;;;;5066196;28;20032;-69
2021/08/18 06:41:32;;;;;;;2.42;1.33;;;16.00;99.90;;;;;;5065513;28;20025;-69
2021/08/18 06:43:58;;;;;;;3.20;1.25;;;16.00;99.90;;;;;;5064037;28;20679;-69
2021/08/18 06:46:23;;;;;;;2.10;1.15;;;16.00;99.90;;;;;;5063727;28;20409;-68
2021/08/18 06:48:49;;;;;;;4.05;1.63;;;16.10;99.90;;;;;;5065385;28;20041;-69
2021/08/18 06:51:16;;;;;;;2.65;1.52;;;16.10;99.90;;;;;;5065424;28;20028;-68
2021/08/18 06:53:42;;;;;;;4.05;1.55;;;16.20;99.90;;;;;;5065601;28;20033;-69
2021/08/18 06:56:08;;;;;;;2.90;1.80;;;16.20;99.90;;;;;;5067183;28;20036;-69
2021/08/18 06:58:34;;;;;;;3.00;1.60;;;16.30;99.90;;;;;;5065063;28;20414;-69
2021/08/18 07:00:59;;;;;;;3.00;1.40;;;16.30;99.90;;;;;;5066211;28;20118;-69
2021/08/18 07:03:25;;;;;;;3.83;1.85;;;16.30;99.90;;;;;;5069676;28;20399;-69
2021/08/18 07:05:51;;;;;;;7.65;1.65;;;16.40;99.90;;;;;;5066757;28;20035;-69
2021/08/18 07:08:16;;;;;;;3.85;1.95;;;16.50;99.90;;;;;;5067526;28;20076;-69
2021/08/18 07:10:42;;;;;;;3.72;1.33;;;16.50;99.90;;;;;;5067537;28;20040;-69
2021/08/18 07:13:08;;;;;;;2.75;1.27;;;16.50;99.90;;;;;;5067975;28;20067;-69
2021/08/18 07:15:33;;;;;;;5.72;1.40;;;16.60;99.90;;;;;;5067360;28;20082;-68
2021/08/18 07:18:01;;;;;;;2.85;1.35;;;16.60;99.90;;;;;;5067151;28;20043;-69
2021/08/18 07:20:26;;;;;;;3.47;1.42;;;16.70;99.90;;;;;;5069490;28;20116;-69
2021/08/18 07:22:52;;;;;;;1.77;1.27;;;16.80;99.90;;;;;;5068458;28;20127;-69
2021/08/18 07:25:17;;;;;;;4.40;1.67;;;16.90;99.90;;;;;;5067621;28;20044;-69
2021/08/18 07:27:43;;;;;;;2.92;1.45;;;17.00;99.90;;;;;;5068190;28;20029;-69
2021/08/18 07:30:09;;;;;;;4.13;1.25;;;17.00;99.90;;;;;;5068384;28;20749;-69
2021/08/18 07:32:37;;;;;;;4.88;1.70;;;17.10;99.90;;;;;;5068463;28;20032;-69
2021/08/18 07:35:04;;;;;;;4.47;1.55;;;17.10;99.90;;;;;;5066319;28;20060;-69
2021/08/18 07:37:30;;;;;;;5.15;1.55;;;17.20;99.90;;;;;;5066997;28;20404;-69
2021/08/18 07:39:56;;;;;;;3.08;1.30;;;17.20;99.90;;;;;;5067304;28;20041;-69
2021/08/18 07:42:22;;;;;;;3.67;1.83;;;17.30;99.90;;;;;;5067906;28;20036;-68
2021/08/18 07:44:48;;;;;;;4.13;1.40;;;17.40;99.90;;;;;;5067294;28;20059;-69
2021/08/18 07:47:13;;;;;;;3.72;1.63;;;17.40;99.90;;;;;;5065834;28;20036;-69
2021/08/18 07:49:39;;;;;;;2.85;1.48;;;17.40;99.90;;;;;;5068092;28;20037;-69
2021/08/18 07:52:05;;;;;;;3.08;1.70;;;17.40;99.90;;;;;;5067332;28;20032;-69
2021/08/18 07:54:31;;;;;;;2.67;1.35;;;17.50;99.90;;;;;;5066551;28;20097;-69
2021/08/18 07:56:56;;;;;;;4.00;1.50;;;17.50;99.90;;;;;;5066973;28;20496;-69
2021/08/18 07:59:22;;;;;;;4.70;1.58;;;17.60;99.90;;;;;;5067981;28;20016;-69
2021/08/18 08:01:48;;;;;;;5.57;1.75;;;17.70;99.90;;;;;;5067393;28;20198;-70
2021/08/18 08:04:13;;;;;;;2.78;1.60;;;17.70;99.90;;;;;;5067226;28;20115;-69
2021/08/18 08:06:39;;;;;;;3.15;2.10;;;17.70;99.90;;;;;;5066818;28;20048;-71
2021/08/18 08:09:04;;;;;;;4.82;1.83;;;17.90;99.90;;;;;;5066912;28;20032;-71
2021/08/18 08:11:30;;;;;;;5.43;1.73;;;17.90;99.90;;;;;;5067358;28;20028;-72
2021/08/18 08:13:56;;;;;;;3.00;1.60;;;17.90;99.90;;;;;;5065444;28;20037;-72
2021/08/18 08:16:22;;;;;;;5.53;1.77;;;18.00;99.90;;;;;;5065156;28;20052;-71
2021/08/18 08:18:47;;;;;;;4.30;1.67;;;18.00;99.90;;;;;;5066642;28;20186;-70
2021/08/18 08:21:13;;;;;;;2.83;1.48;;;18.00;99.90;;;;;;5067909;28;20059;-70
2021/08/18 08:23:39;;;;;;;5.88;1.70;;;18.00;99.90;;;;;;5068552;28;20408;-70
2021/08/18 08:26:05;;;;;;;5.07;1.75;;;18.10;99.90;;;;;;5067283;28;20047;-71
2021/08/18 08:28:31;;;;;;;5.22;1.85;;;18.20;99.90;;;;;;5066933;28;20477;-70
2021/08/18 08:30:56;;;;;;;4.40;2.00;;;18.30;99.90;;;;;;5066362;28;20074;-70
2021/08/18 08:33:22;;;;;;;3.58;2.15;;;18.30;99.90;;;;;;5068021;28;20235;-70
2021/08/18 08:35:47;;;;;;;16.92;2.20;;;18.30;99.90;;;;;;5067814;28;20048;-70
2021/08/18 08:38:15;;;;;;;5.65;1.95;;;18.40;99.90;;;;;;5068045;28;20725;-67
2021/08/18 08:40:43;;;;;;;6.80;2.40;;;18.40;99.90;;;;;;5067412;28;20091;-70
2021/08/18 08:43:11;;;;;;;3.83;2.00;;;18.40;99.90;;;;;;5065749;28;20028;-71
2021/08/18 08:45:39;;;;;;;3.58;1.95;;;18.40;99.90;;;;;;5067755;28;20084;-70
2021/08/18 08:48:06;;;;;;;3.15;1.83;;;18.50;99.90;;;;;;5068377;28;20541;-70
2021/08/18 08:50:33;;;;;;;2.95;1.80;;;18.50;99.90;;;;;;5068358;28;20036;-70
2021/08/18 08:52:58;;;;;;;4.95;2.03;;;18.60;99.90;;;;;;5067039;28;20044;-70
2021/08/18 08:55:24;;;;;;;7.90;3.00;;;18.60;99.90;;;;;;5067371;28;20131;-70
2021/08/18 08:57:52;;;;;;;3.72;2.08;;;18.70;99.90;;;;;;5066569;28;20025;-70
2021/08/18 09:00:18;;;;;;;3.85;2.03;;;18.70;99.90;;;;;;5066526;28;20109;-70
2021/08/18 09:02:44;;;;;;;5.15;2.03;;;18.80;99.90;;;;;;5068783;28;20120;-71
2021/08/18 09:05:10;;;;;;;3.40;2.35;;;18.80;99.90;;;;;;5068380;28;20116;-71
2021/08/18 09:07:36;;;;;;;5.95;2.20;;;18.80;99.90;;;;;;5068482;28;20055;-70
2021/08/18 09:10:05;;;;;;;3.63;1.90;;;18.90;99.90;;;;;;5066645;28;20116;-71
2021/08/18 09:12:32;;;;;;;5.47;2.53;;;19.00;99.90;;;;;;5068230;28;20036;-69
2021/08/18 09:15:13;;;;;;;4.93;2.20;;;19.00;99.90;;;;;;5069327;28;20048;-70
2021/08/18 09:17:39;;;;;;;3.50;1.83;;;19.00;99.90;;;;;;5067374;28;20042;-70
2021/08/18 09:20:10;;;;;;;6.10;2.35;;;18.90;99.90;;;;;;5068191;28;20033;-71
2021/08/18 09:22:39;;;;;;;5.07;2.47;;;18.90;99.90;;;;;;5067435;28;20044;-71
2021/08/18 09:25:13;;;;;;;4.45;2.42;;;18.80;99.90;;;;;;5066467;28;20025;-71
2021/08/18 09:27:40;;;;;;;3.47;2.45;;;18.60;99.90;;;;;;5067288;28;20125;-70
2021/08/18 09:30:07;;;;;;;6.28;2.45;;;18.60;99.90;;;;;;5067756;28;20866;-70
2021/08/18 09:32:36;;;;;;;5.63;2.95;;;18.50;99.90;;;;;;5067695;28;20037;-71
2021/08/18 09:35:13;;;;;;;7.45;3.13;;;18.50;99.90;;;;;;5068150;28;20029;-70
2021/08/18 09:37:42;;;;;;;3.47;2.50;;;18.50;99.90;;;;;;5067458;28;20126;-70
2021/08/18 09:40:20;;;;;;;6.50;2.90;;;18.50;99.90;;;;;;5067860;28;20036;-71
2021/08/18 09:42:46;;;;;;;7.43;2.85;;;18.50;99.90;;;;;;5066276;28;20041;-71
2021/08/18 09:45:24;;;;;;;8.93;3.28;;;18.60;99.90;;;;;;5067389;28;20046;-70
2021/08/18 09:47:51;;;;;;;4.30;2.45;;;18.60;99.90;;;;;;5066058;28;20032;-71
2021/08/18 09:50:17;;;;;;;5.13;3.08;;;18.50;99.90;;;;;;5066647;28;20091;-71
2021/08/18 09:52:43;;;;;;;8.10;3.60;;;18.40;99.90;;;;;;5064545;28;20044;-70
2021/08/18 09:55:11;;;;;;;6.15;3.35;;;18.20;99.90;;;;;;5064322;28;20036;-71
2021/08/18 09:57:37;;;;;;;6.45;3.70;;;18.10;99.90;;;;;;5064741;28;20056;-70
2021/08/18 10:00:03;;;;;;;6.93;3.80;;;18.00;99.90;;;;;;5066255;28;20056;-70
2021/08/18 10:02:30;;;;;;;6.47;3.47;;;18.00;99.90;;;;;;5066431;28;20693;-71
2021/08/18 10:04:59;;;;;;;8.40;3.83;;;18.00;99.90;;;;;;5066278;28;20044;-71
2021/08/18 10:07:26;;;;;;;4.43;3.03;;;17.90;99.90;;;;;;5065566;28;20055;-70
2021/08/18 10:09:52;;;;;;;5.82;3.38;;;17.90;99.90;;;;;;5056689;28;20071;-71
2021/08/18 10:12:18;;;;;;;6.80;3.85;;;17.90;99.90;;;;;;5063793;28;20056;-71
2021/08/18 10:14:44;;;;;;;10.15;3.88;;;17.90;99.90;;;;;;5062858;28;20033;-71
2021/08/18 10:17:09;;;;;;;6.60;3.83;;;17.90;99.90;;;;;;5063828;28;20086;-71
2021/08/18 10:19:35;;;;;;;7.68;4.40;;;17.90;99.90;;;;;;5062718;28;20029;-71
2021/08/18 10:22:01;;;;;;;7.75;4.22;;;18.00;99.90;;;;;;5063302;28;20044;-72
2021/08/18 10:24:35;;;;;;;8.75;3.88;;;18.00;99.90;;;;;;5064599;28;20285;-71
2021/08/18 10:27:05;;;;;;;7.47;3.78;;;18.20;99.90;;;;;;5061301;28;20119;-71
2021/08/18 10:29:33;;;;;;;7.13;3.83;;;18.30;99.90;;;;;;5062088;28;20032;-70
2021/08/18 10:32:20;;;;;;;8.27;3.63;;;18.60;99.90;;;;;;5061774;28;20032;-71
2021/08/18 10:34:47;;;;;;;6.43;3.58;;;18.80;99.90;;;;;;5065064;28;20444;-71
2021/08/18 10:37:14;;;;;;;7.43;4.28;;;19.10;99.90;;;;;;5064764;28;20032;-71
2021/08/18 10:39:43;;;;;;;5.97;3.33;;;19.30;99.90;;;;;;5066739;28;20413;-72
2021/08/18 10:42:08;;;;;;;6.70;3.33;;;19.50;99.90;;;;;;5066766;28;20036;-71
2021/08/18 10:44:37;;;;;;;6.53;2.55;;;19.70;99.90;;;;;;5065431;28;20036;-71
2021/08/18 10:47:20;;;;;;;7.13;2.75;;;19.70;99.90;;;;;;5064201;28;20128;-71
2021/08/18 10:49:48;;;;;;;5.20;2.17;;;19.90;99.90;;;;;;5065888;28;20047;-71
2021/08/18 10:52:29;;;;;;;6.10;2.55;;;20.10;99.90;;;;;;5066224;28;20029;-71
2021/08/18 10:55:08;;;;;;;4.35;2.25;;;20.10;99.90;;;;;;5065584;28;20127;-71
2021/08/18 10:57:49;;;;;;;4.18;2.00;;;20.00;99.90;;;;;;5064439;28;20161;-70
2021/08/18 11:00:36;;;;;;;6.38;1.88;;;19.90;99.90;;;;;;5066028;28;20115;-71
2021/08/18 11:03:26;;;;;;;7.70;2.33;;;19.70;99.90;;;;;;5065798;28;20037;-71
2021/08/18 11:05:53;;;;;;;3.47;1.88;;;19.60;99.90;;;;;;5065638;28;20087;-71
2021/08/18 11:08:40;;;;;;;7.00;2.05;;;19.70;99.90;;;;;;5065720;28;20032;-69
2021/08/18 11:11:06;;;;;;;6.55;2.10;;;20.00;99.90;;;;;;5064896;28;20778;-71
2021/08/18 11:13:53;;;;;;;4.45;2.10;;;20.10;99.90;;;;;;5065137;28;20531;-69
2021/08/18 11:16:26;;;;;;;6.45;2.10;;;20.40;99.90;;;;;;5065489;28;20044;-70
2021/08/18 11:18:57;;;;;;;4.32;2.38;;;20.70;99.90;;;;;;5065780;28;20024;-70
2021/08/18 11:21:28;;;;;;;4.53;2.20;;;20.80;99.90;;;;;;5065799;28;20071;-70
2021/08/18 11:24:15;;;;;;;10.50;1.88;;;20.90;99.90;;;;;;5066638;28;20047;-70
2021/08/18 11:26:43;;;;;;;2.28;1.73;;;20.80;99.90;;;;;;5065358;28;20048;-71
2021/08/18 11:29:11;;;;;;;7.70;1.88;;;20.70;99.90;;;;;;5066270;28;20040;-71
2021/08/18 11:31:37;;;;;;;2.83;1.48;;;20.60;99.90;;;;;;5064147;28;20024;-70
2021/08/18 11:34:04;;;;;;;6.28;3.17;;;20.70;99.90;;;;;;5065943;28;20033;-70
2021/08/18 11:36:35;;;;;;;3.80;1.70;;;20.70;99.90;;;;;;5064013;28;20037;-69
2021/08/18 11:39:04;;;;;;;6.30;2.53;;;20.80;99.90;;;;;;5065857;28;20036;-68
2021/08/18 11:41:37;;;;;;;6.60;1.90;;;20.90;99.90;;;;;;5064716;28;20116;-70
2021/08/18 11:44:03;;;;;;;5.25;2.00;;;20.90;99.90;;;;;;5065532;28;20167;-71
2021/08/18 11:46:30;;;;;;;8.48;1.73;;;21.10;99.90;;;;;;5064517;28;20125;-71
2021/08/18 11:49:04;;;;;;;4.38;1.70;;;21.10;99.90;;;;;;5067751;28;20036;-71
2021/08/18 11:51:30;;;;;;;2.53;1.45;;;21.30;99.90;;;;;;5068339;28;20040;-72
2021/08/18 11:53:55;;;;;;;3.45;1.27;;;21.50;99.90;;;;;;5070000;28;20029;-70
2021/08/18 11:56:29;;;;;;;4.45;1.73;;;21.60;99.90;;;;;;5068840;28;20484;-70
2021/08/18 11:59:02;;;;;;;1.83;1.10;;;21.70;99.90;;;;;;5067970;28;20497;-71
2021/08/18 12:01:29;;;;;;;4.03;1.70;;;21.80;99.90;;;;;;5069320;28;20089;-70
2021/08/18 12:03:54;;;;;;;2.88;1.42;;;21.90;99.90;;;;;;5066970;28;20182;-70
2021/08/18 12:06:37;;;;;;;2.92;1.02;;;22.00;99.90;;;;;;5068635;28;20067;-70
2021/08/18 12:09:19;;;;;;;6.40;1.58;;;22.10;99.90;;;;;;5067565;28;20374;-71
2021/08/18 12:11:45;;;;;;;2.10;1.10;;;22.10;99.90;;;;;;5068216;28;20063;-71
2021/08/18 12:14:16;;;;;;;2.25;1.10;;;22.00;99.90;;;;;;5069351;28;20489;-71
2021/08/18 12:16:43;;;;;;;2.65;1.00;;;21.70;99.90;;;;;;5066794;28;20400;-70
2021/08/18 12:19:39;;;;;;;3.28;1.15;;;21.70;99.90;;;;;;5069003;28;20115;-70
2021/08/18 12:22:13;;;;;;;4.20;1.55;;;21.60;99.90;;;;;;5057470;28;20041;-71
2021/08/18 12:24:40;;;;;;;4.32;1.20;;;21.60;99.90;;;;;;5067016;28;20036;-70
2021/08/18 12:27:08;;;;;;;3.05;1.50;;;21.50;99.90;;;;;;5066706;28;20041;-70
2021/08/18 12:29:35;;;;;;;2.47;1.10;;;21.60;99.90;;;;;;5069132;28;20086;-70
2021/08/18 12:32:08;;;;;;;2.67;1.30;;;21.60;99.90;;;;;;5068842;28;20060;-70
2021/08/18 12:34:45;;;;;;;4.35;1.27;;;21.80;99.90;;;;;;5068965;28;20036;-70
2021/08/18 12:37:16;;;;;;;4.45;1.50;;;21.80;99.90;;;;;;5068276;28;20082;-71
2021/08/18 12:39:45;;;;;;;2.88;1.13;;;21.90;99.90;;;;;;5068477;28;20107;-71
2021/08/18 12:42:23;;;;;;;4.72;1.65;;;21.90;99.90;;;;;;5068630;28;20033;-71
2021/08/18 12:45:10;;;;;;;2.60;1.20;;;21.90;99.90;;;;;;5065761;28;20496;-70
2021/08/18 12:47:38;;;;;;;4.00;1.35;;;21.80;99.90;;;;;;5067224;28;20038;-71